Chazy, NY (12921)

1:33 PM EST on February 09, 2016 (GMT -0500)
Chazy, NY | | Change Station
CLOSE
Current Station
Personal Weather Station
Location: Chazy, NY
Elevation: 167 ft
Nearby Weather Stations

Elev 167 ft 44.88 °N, 73.43 °W | Updated 0 second ago

Snow
Snow
23.2 °F
Feels Like 23 °F
N
3.0
Wind Variable Wind from NE
Gusts 6.0 mph

Today
High -- | Low -- °F
--% Chance of Precip.
Yesterday
High -- | Low -- °F
Precip. -- in
Pressure 29.62 in
Visibility 1.5 miles
Clouds Overcast 1400 ft
Windchill 23 °F
Dew Point 21 °F
Humidity 93%
Rainfall 0.00 in
Snow Depth Not available.
7:03 AM 5:12 PM
New Moon, 2% visible
METAR KPBG 091753Z AUTO 09004KT 1 1/2SM -SN BR OVC014 M04/M06 A2961 RMK AO2 SLP030 P0000 60001 T10391061 11039 21072 58022
Pressure 29.62 in
Visibility 1.5 miles
Clouds Overcast 1400 ft
Windchill 23 °F
Dew Point 21 °F
Humidity 93%
Rainfall 0.00 in
Snow Depth Not available.
7:03 AM 5:12 PM
New Moon, 2% visible
METAR KPBG 091753Z AUTO 09004KT 1 1/2SM -SN BR OVC014 M04/M06 A2961 RMK AO2 SLP030 P0000 60001 T10391061 11039 21072 58022

10-Day Weather Forecast

Almanac

Astronomy

Feb. 09, 2016 Rise Set
Actual Time
Civil Twilight
Nautical Twilight
Astronomical Twilight
Moon
Length of Visible Light
Length of Day
Tomorrow will be .
, % of the Moon is Illuminated

Today's Extremes

State Highs State Lows

Community

WunderPhotos

Upload Photos

1,891,656 photos uploaded!

WunderBlog® & News

Nearby

Air Quality

  Air Quality AQ Index Pollutant
Not available.

Snow Depth

Station Depth Elevation

Earthquake Activity

City Distance Mag. Time & Date
Minimum magnitude displayed is 2.5.

Coastal Water Temperatures

Place Temperature

Stations

Nearby Weather Stations

Station Location Temp. Windchill Dew Point Humidity Wind Precip. Elev Updated Type
                   

Watches & Warnings

There are currently no watches in effect.